Time;durP1;ratioP1;P1;durP2;ratioP2;P2;SDS_P1;SDS_P2;PMS_P1;PMS_P2;Temp;Humidity;BMP_temperature;BMP_pressure;BME280_temperature;BME280_humidity;BME280_pressure;Samples;Min_cycle;Max_cycle;Signal;HPM_P1;HPM_P2
2021/05/13 00:00:22;;;;;;;12.68;9.52;;;;;;;;;;5133022;27;20050;-69
2021/05/13 00:02:48;;;;;;;14.15;10.52;;;;;;;;;;5131787;27;20551;-69
2021/05/13 00:05:14;;;;;;;16.30;10.98;;;;;;;;;;5133903;27;20459;-69
2021/05/13 00:07:41;;;;;;;12.88;10.05;;;;;;;;;;5134618;27;20410;-69
2021/05/13 00:10:08;;;;;;;14.88;11.35;;;;;;;;;;5135293;27;20058;-69
2021/05/13 00:12:40;;;;;;;13.43;9.50;;;;;;;;;;5134821;27;20437;-69
2021/05/13 00:15:11;;;;;;;17.27;12.15;;;;;;;;;;5135202;27;20054;-69
2021/05/13 00:17:37;;;;;;;14.68;9.93;;;;;;;;;;5135569;27;20410;-69
2021/05/13 00:20:07;;;;;;;15.93;11.60;;;;;;;;;;5135099;27;20095;-69
2021/05/13 00:22:33;;;;;;;17.83;12.13;;;;;;;;;;5134413;27;20648;-69
2021/05/13 00:25:00;;;;;;;13.73;9.10;;;;;;;;;;5134837;27;20056;-69
2021/05/13 00:27:26;;;;;;;15.15;11.00;;;;;;;;;;5135576;27;20053;-69
2021/05/13 00:29:52;;;;;;;13.93;10.65;;;;;;;;;;5135513;27;20047;-69
2021/05/13 00:32:18;;;;;;;14.88;10.73;;;;;;;;;;5134514;27;20051;-69
2021/05/13 00:34:44;;;;;;;13.75;10.25;;;;;;;;;;5135187;27;20050;-69
2021/05/13 00:37:10;;;;;;;13.27;9.77;;;;;;;;;;5135730;27;20387;-69
2021/05/13 00:39:36;;;;;;;15.02;11.18;;;;;;;;;;5134893;27;20137;-69
2021/05/13 00:42:03;;;;;;;16.08;12.05;;;;;;;;;;5134624;27;20043;-69
2021/05/13 00:44:29;;;;;;;16.15;11.43;;;;;;;;;;5135260;27;20053;-69
2021/05/13 00:46:55;;;;;;;17.13;12.77;;;;;;;;;;5135203;27;20047;-69
2021/05/13 00:49:23;;;;;;;14.10;10.70;;;;;;;;;;5135051;27;20139;-69
2021/05/13 00:51:49;;;;;;;14.95;11.77;;;;;;;;;;5134139;27;20388;-69
2021/05/13 00:54:17;;;;;;;13.98;10.30;;;;;;;;;;5134651;27;20050;-69
2021/05/13 00:56:43;;;;;;;15.40;11.30;;;;;;;;;;5134894;27;20427;-69
2021/05/13 00:59:12;;;;;;;12.00;9.70;;;;;;;;;;5134495;27;20084;-69
2021/05/13 01:04:20;;;;;;;17.35;11.75;;;;;;;;;;5119869;27;20044;-69
2021/05/13 01:06:47;;;;;;;14.15;10.60;;;;;;;;;;5134130;27;20434;-68
2021/05/13 01:09:19;;;;;;;12.48;9.98;;;;;;;;;;5134206;27;20051;-68
2021/05/13 01:11:50;;;;;;;12.88;9.65;;;;;;;;;;5133232;27;20077;-68
2021/05/13 01:14:20;;;;;;;12.00;8.90;;;;;;;;;;5133949;27;20108;-69
2021/05/13 01:16:58;;;;;;;12.73;9.75;;;;;;;;;;5133959;27;20051;-69
2021/05/13 01:19:25;;;;;;;11.75;9.48;;;;;;;;;;5134335;27;20043;-69
2021/05/13 01:21:52;;;;;;;12.70;9.30;;;;;;;;;;5133548;27;20047;-69
2021/05/13 01:24:18;;;;;;;14.30;10.20;;;;;;;;;;5133779;27;20054;-68
2021/05/13 01:26:45;;;;;;;13.73;11.00;;;;;;;;;;5133705;27;20047;-68
2021/05/13 01:29:12;;;;;;;12.05;9.25;;;;;;;;;;5133580;27;20047;-68
2021/05/13 01:31:38;;;;;;;10.52;8.50;;;;;;;;;;5132664;27;20054;-69
2021/05/13 01:34:05;;;;;;;9.68;7.70;;;;;;;;;;5133912;27;20047;-68
2021/05/13 01:36:32;;;;;;;17.90;13.00;;;;;;;;;;5133864;27;20047;-68
2021/05/13 01:38:59;;;;;;;17.45;13.30;;;;;;;;;;5134088;28;20090;-68
2021/05/13 01:41:25;;;;;;;14.00;11.05;;;;;;;;;;5133697;27;20043;-69
2021/05/13 01:43:51;;;;;;;14.32;11.50;;;;;;;;;;5140237;27;20054;-68
2021/05/13 01:46:17;;;;;;;16.77;12.32;;;;;;;;;;5140535;27;20082;-69
2021/05/13 01:48:44;;;;;;;18.92;14.75;;;;;;;;;;5140566;27;20046;-68
2021/05/13 01:51:10;;;;;;;17.95;12.98;;;;;;;;;;5139302;27;20170;-68
2021/05/13 01:53:39;;;;;;;17.00;12.43;;;;;;;;;;5140132;27;20049;-68
2021/05/13 01:56:06;;;;;;;17.92;13.68;;;;;;;;;;5141014;27;20054;-68
2021/05/13 01:58:32;;;;;;;19.63;14.32;;;;;;;;;;5140137;27;20050;-69
2021/05/13 02:00:58;;;;;;;17.38;13.50;;;;;;;;;;5139661;27;20065;-68
2021/05/13 02:03:26;;;;;;;18.00;14.27;;;;;;;;;;5139110;27;20055;-69
2021/05/13 02:05:52;;;;;;;19.13;14.35;;;;;;;;;;5132015;27;20483;-68
2021/05/13 02:08:18;;;;;;;17.73;14.90;;;;;;;;;;5140239;27;20055;-69
2021/05/13 02:10:44;;;;;;;20.88;15.23;;;;;;;;;;5140445;27;20047;-68
2021/05/13 02:13:11;;;;;;;17.00;13.75;;;;;;;;;;5140197;27;20054;-69
2021/05/13 02:15:37;;;;;;;17.77;14.20;;;;;;;;;;5140367;27;20111;-68
2021/05/13 02:18:04;;;;;;;21.48;14.75;;;;;;;;;;5140596;27;20545;-69
2021/05/13 02:20:30;;;;;;;17.73;12.95;;;;;;;;;;5140341;27;20555;-68
2021/05/13 02:22:57;;;;;;;20.60;15.35;;;;;;;;;;5139474;27;20073;-68
2021/05/13 02:25:26;;;;;;;21.00;15.27;;;;;;;;;;5140184;27;20043;-68
2021/05/13 02:27:52;;;;;;;17.48;12.65;;;;;;;;;;5119745;28;20127;-69
2021/05/13 02:30:20;;;;;;;13.05;10.65;;;;;;;;;;5119825;28;20159;-69
2021/05/13 02:32:47;;;;;;;13.15;10.88;;;;;;;;;;5137094;27;20464;-69
2021/05/13 02:35:14;;;;;;;19.70;13.52;;;;;;;;;;5140106;27;20074;-69
2021/05/13 02:37:40;;;;;;;21.23;14.55;;;;;;;;;;5139937;27;20050;-69
2021/05/13 02:40:08;;;;;;;24.17;17.00;;;;;;;;;;5140577;27;20061;-68
2021/05/13 02:42:34;;;;;;;18.65;13.70;;;;;;;;;;5139917;27;20092;-68
2021/05/13 02:45:00;;;;;;;21.00;15.85;;;;;;;;;;5140294;27;20493;-68
2021/05/13 02:47:27;;;;;;;24.08;16.20;;;;;;;;;;5140491;27;20055;-68
2021/05/13 02:49:53;;;;;;;18.55;13.65;;;;;;;;;;5139870;27;20066;-69
2021/05/13 02:52:19;;;;;;;18.88;14.30;;;;;;;;;;5136160;27;20051;-69
2021/05/13 02:54:45;;;;;;;15.30;12.15;;;;;;;;;;5135468;27;20055;-69
2021/05/13 02:57:11;;;;;;;19.98;14.93;;;;;;;;;;5135606;27;20047;-69
2021/05/13 02:59:43;;;;;;;19.27;13.88;;;;;;;;;;5136694;27;20114;-69
2021/05/13 03:02:10;;;;;;;16.25;12.85;;;;;;;;;;5135855;27;20095;-69
2021/05/13 03:04:36;;;;;;;14.75;10.70;;;;;;;;;;5132204;27;20043;-69
2021/05/13 03:07:03;;;;;;;16.95;12.43;;;;;;;;;;5124506;27;20099;-69
2021/05/13 03:09:29;;;;;;;18.75;14.02;;;;;;;;;;5136354;27;20567;-69
2021/05/13 03:11:55;;;;;;;21.55;16.00;;;;;;;;;;5135336;27;20051;-69
2021/05/13 03:14:21;;;;;;;25.30;15.77;;;;;;;;;;5135870;27;20104;-69
2021/05/13 03:16:47;;;;;;;21.23;15.25;;;;;;;;;;5136618;27;20138;-69
2021/05/13 03:19:17;;;;;;;25.58;16.65;;;;;;;;;;5135888;27;20054;-69
2021/05/13 03:21:46;;;;;;;21.27;15.95;;;;;;;;;;5135156;27;20449;-69
2021/05/13 03:24:16;;;;;;;26.17;16.33;;;;;;;;;;5135819;27;20035;-69
2021/05/13 03:26:55;;;;;;;24.08;15.98;;;;;;;;;;5135766;27;20324;-69
2021/05/13 03:29:22;;;;;;;24.60;16.02;;;;;;;;;;5136143;27;20047;-69
2021/05/13 03:31:48;;;;;;;25.95;17.08;;;;;;;;;;5135204;27;20091;-69
2021/05/13 03:34:15;;;;;;;27.17;17.85;;;;;;;;;;5135952;27;20040;-69
2021/05/13 03:36:41;;;;;;;27.42;17.60;;;;;;;;;;5136123;27;20130;-68
2021/05/13 03:39:09;;;;;;;26.77;17.40;;;;;;;;;;5136163;27;20069;-68
2021/05/13 03:41:35;;;;;;;23.52;16.70;;;;;;;;;;5134710;27;20050;-69
2021/05/13 03:44:02;;;;;;;21.50;15.65;;;;;;;;;;5136015;27;20064;-68
2021/05/13 03:46:28;;;;;;;21.33;16.10;;;;;;;;;;5135848;27;20753;-68
2021/05/13 03:48:54;;;;;;;24.85;17.58;;;;;;;;;;5136147;27;20047;-69
2021/05/13 03:51:20;;;;;;;23.50;17.20;;;;;;;;;;5134134;27;20092;-68
2021/05/13 03:53:46;;;;;;;24.38;16.48;;;;;;;;;;5135772;27;20126;-68
2021/05/13 03:56:13;;;;;;;22.90;16.83;;;;;;;;;;5135182;27;20082;-68
2021/05/13 03:58:45;;;;;;;24.02;17.33;;;;;;;;;;5135376;27;20066;-69
2021/05/13 04:01:14;;;;;;;24.30;15.65;;;;;;;;;;5133819;27;20054;-69
2021/05/13 04:03:40;;;;;;;26.50;16.92;;;;;;;;;;5135013;27;20487;-69
2021/05/13 04:06:06;;;;;;;26.70;18.42;;;;;;;;;;5133050;27;20082;-69
2021/05/13 04:08:32;;;;;;;23.65;17.23;;;;;;;;;;5133306;27;20065;-68
2021/05/13 04:10:58;;;;;;;27.13;18.63;;;;;;;;;;5138549;27;20449;-68
2021/05/13 04:13:26;;;;;;;24.08;17.67;;;;;;;;;;5136579;27;20489;-68
2021/05/13 04:15:52;;;;;;;27.35;17.95;;;;;;;;;;5141552;27;20467;-68
2021/05/13 04:18:18;;;;;;;23.02;15.85;;;;;;;;;;5150006;27;20043;-68
2021/05/13 04:20:45;;;;;;;31.25;17.35;;;;;;;;;;5140614;27;20054;-68
2021/05/13 04:23:11;;;;;;;26.25;17.58;;;;;;;;;;5134520;27;20537;-68
2021/05/13 04:25:37;;;;;;;26.55;16.88;;;;;;;;;;5114251;28;20054;-68
2021/05/13 04:28:04;;;;;;;29.63;16.85;;;;;;;;;;5114519;28;20400;-68
2021/05/13 04:30:31;;;;;;;24.63;16.08;;;;;;;;;;5116960;27;20051;-68
2021/05/13 04:32:57;;;;;;;19.58;14.95;;;;;;;;;;5134080;27;20039;-68
2021/05/13 04:35:24;;;;;;;25.38;16.52;;;;;;;;;;5134476;27;20053;-68
2021/05/13 04:37:50;;;;;;;25.33;16.13;;;;;;;;;;5134645;27;20492;-68
2021/05/13 04:40:17;;;;;;;25.83;15.25;;;;;;;;;;5134684;27;20080;-68
2021/05/13 04:42:43;;;;;;;17.67;13.32;;;;;;;;;;5133802;27;20040;-68
2021/05/13 04:45:09;;;;;;;17.63;13.95;;;;;;;;;;5134455;27;20058;-68
2021/05/13 04:48:02;;;;;;;17.05;13.32;;;;;;;;;;5134504;27;20051;-68
2021/05/13 04:50:22;;;;;;;17.70;12.95;;;;;;;;;;5134012;27;20047;-68
2021/05/13 04:52:48;;;;;;;21.13;14.73;;;;;;;;;;5134042;27;20104;-68
2021/05/13 04:55:15;;;;;;;18.63;14.00;;;;;;;;;;5134841;27;20047;-68
2021/05/13 04:57:41;;;;;;;18.45;14.02;;;;;;;;;;5134454;27;20736;-68
2021/05/13 05:00:10;;;;;;;16.60;12.77;;;;;;;;;;5134944;27;20103;-68
2021/05/13 05:02:37;;;;;;;19.17;14.48;;;;;;;;;;5133727;27;20100;-68
2021/05/13 05:05:04;;;;;;;18.98;14.43;;;;;;;;;;5133827;27;20499;-68
2021/05/13 05:07:30;;;;;;;18.77;13.82;;;;;;;;;;5132857;27;20110;-68
2021/05/13 05:09:56;;;;;;;19.27;13.80;;;;;;;;;;5133999;27;20054;-68
2021/05/13 05:12:22;;;;;;;21.60;15.07;;;;;;;;;;5133148;27;20054;-68
2021/05/13 05:14:48;;;;;;;20.67;15.18;;;;;;;;;;5133996;27;20411;-68
2021/05/13 05:17:14;;;;;;;22.20;14.27;;;;;;;;;;5133226;27;20413;-68
2021/05/13 05:19:41;;;;;;;19.65;14.60;;;;;;;;;;5133973;27;20081;-68
2021/05/13 05:22:07;;;;;;;21.33;14.50;;;;;;;;;;5133058;27;20053;-68
2021/05/13 05:24:33;;;;;;;19.30;15.07;;;;;;;;;;5133843;27;20192;-68
2021/05/13 05:26:59;;;;;;;22.73;14.98;;;;;;;;;;5133393;27;20051;-68
2021/05/13 05:29:25;;;;;;;20.33;15.27;;;;;;;;;;5133604;27;20203;-68
2021/05/13 05:31:51;;;;;;;17.80;13.57;;;;;;;;;;5132874;27;20047;-68
2021/05/13 05:34:17;;;;;;;23.33;16.52;;;;;;;;;;5134331;27;20411;-68
2021/05/13 05:36:44;;;;;;;19.50;14.63;;;;;;;;;;5133829;27;20080;-68
2021/05/13 05:39:10;;;;;;;22.20;16.02;;;;;;;;;;5133695;27;20047;-68
2021/05/13 05:41:36;;;;;;;22.30;15.02;;;;;;;;;;5133426;28;20122;-68
2021/05/13 05:44:03;;;;;;;20.42;15.75;;;;;;;;;;5133674;28;20497;-68
2021/05/13 05:46:29;;;;;;;23.02;17.40;;;;;;;;;;5134268;28;20103;-68
2021/05/13 05:48:56;;;;;;;21.00;16.15;;;;;;;;;;5133459;28;20054;-68
2021/05/13 05:51:22;;;;;;;20.80;16.38;;;;;;;;;;5132898;28;20050;-68
2021/05/13 05:53:49;;;;;;;21.02;16.48;;;;;;;;;;5134162;28;20051;-68
2021/05/13 05:56:15;;;;;;;21.27;15.77;;;;;;;;;;5133890;28;20047;-68
2021/05/13 05:58:41;;;;;;;21.30;16.52;;;;;;;;;;5133705;28;20094;-68
2021/05/13 06:01:07;;;;;;;23.35;17.77;;;;;;;;;;5133629;28;20079;-68
2021/05/13 06:03:33;;;;;;;20.23;16.35;;;;;;;;;;5136203;27;20054;-68
2021/05/13 06:05:59;;;;;;;23.45;16.05;;;;;;;;;;5154532;27;20416;-68
2021/05/13 06:08:25;;;;;;;19.77;15.38;;;;;;;;;;5130730;27;20096;-68
2021/05/13 06:10:52;;;;;;;22.38;15.90;;;;;;;;;;5133126;28;20421;-68
2021/05/13 06:13:18;;;;;;;20.15;15.38;;;;;;;;;;5133589;28;20043;-68
2021/05/13 06:15:44;;;;;;;20.60;16.33;;;;;;;;;;5133836;28;20575;-68
2021/05/13 06:18:10;;;;;;;19.25;14.45;;;;;;;;;;5133870;28;20139;-68
2021/05/13 06:20:36;;;;;;;23.13;15.68;;;;;;;;;;5131392;28;20090;-68
2021/05/13 06:23:03;;;;;;;17.92;14.55;;;;;;;;;;5132808;28;20045;-68
2021/05/13 06:25:29;;;;;;;18.10;14.93;;;;;;;;;;5133516;28;20043;-68
2021/05/13 06:27:57;;;;;;;20.45;14.48;;;;;;;;;;5134176;27;20054;-68
2021/05/13 06:30:24;;;;;;;20.05;14.50;;;;;;;;;;5137619;27;20047;-68
2021/05/13 06:32:50;;;;;;;20.08;14.98;;;;;;;;;;5136635;27;20040;-67
2021/05/13 06:35:18;;;;;;;17.23;13.00;;;;;;;;;;5137464;27;20171;-68
2021/05/13 06:37:44;;;;;;;19.63;15.07;;;;;;;;;;5137187;27;20054;-67
2021/05/13 06:40:11;;;;;;;19.48;14.40;;;;;;;;;;5137293;27;20046;-67
2021/05/13 06:42:37;;;;;;;17.55;13.90;;;;;;;;;;5136724;27;20055;-67
2021/05/13 06:45:04;;;;;;;16.30;13.95;;;;;;;;;;5137302;27;20100;-69
2021/05/13 06:47:30;;;;;;;18.52;15.23;;;;;;;;;;5136783;27;20051;-68
2021/05/13 06:49:56;;;;;;;17.75;14.35;;;;;;;;;;5137320;27;20141;-69
2021/05/13 06:52:22;;;;;;;17.25;13.50;;;;;;;;;;5136645;27;20134;-68
2021/05/13 06:54:48;;;;;;;16.27;13.45;;;;;;;;;;5136964;27;20109;-68
2021/05/13 06:57:14;;;;;;;19.63;15.30;;;;;;;;;;5137439;27;20085;-69
2021/05/13 06:59:41;;;;;;;18.80;14.30;;;;;;;;;;5136886;27;20082;-69
2021/05/13 07:02:09;;;;;;;20.00;14.85;;;;;;;;;;5135722;27;20058;-69
2021/05/13 07:04:35;;;;;;;19.73;16.42;;;;;;;;;;5136483;27;20092;-67
2021/05/13 07:07:01;;;;;;;17.95;14.25;;;;;;;;;;5136491;27;20046;-68
2021/05/13 07:09:27;;;;;;;16.30;13.18;;;;;;;;;;5133878;27;20752;-68
2021/05/13 07:11:53;;;;;;;17.40;13.50;;;;;;;;;;5135146;27;20058;-68
2021/05/13 07:14:20;;;;;;;19.00;12.48;;;;;;;;;;5136236;27;20039;-68
2021/05/13 07:16:46;;;;;;;16.85;14.02;;;;;;;;;;5136474;27;20086;-69
2021/05/13 07:19:12;;;;;;;16.73;13.30;;;;;;;;;;5134994;27;20617;-68
2021/05/13 07:21:38;;;;;;;16.15;13.93;;;;;;;;;;5134132;27;20364;-68
2021/05/13 07:24:06;;;;;;;14.48;11.93;;;;;;;;;;5135313;27;20126;-68
2021/05/13 07:26:32;;;;;;;14.20;12.23;;;;;;;;;;5136140;27;20051;-69
2021/05/13 07:28:58;;;;;;;13.38;11.75;;;;;;;;;;5135165;27;20135;-70
2021/05/13 07:31:24;;;;;;;13.55;11.88;;;;;;;;;;5134538;27;20047;-70
2021/05/13 07:33:50;;;;;;;16.25;11.82;;;;;;;;;;5134985;27;20047;-67
2021/05/13 07:36:17;;;;;;;15.07;12.10;;;;;;;;;;5134865;27;20404;-67
2021/05/13 07:38:44;;;;;;;14.57;10.73;;;;;;;;;;5134770;27;20055;-68
2021/05/13 07:41:10;;;;;;;15.05;10.77;;;;;;;;;;5132979;27;20047;-67
2021/05/13 07:43:37;;;;;;;14.75;11.45;;;;;;;;;;5134897;27;20047;-69
2021/05/13 07:46:04;;;;;;;13.50;10.57;;;;;;;;;;5134535;27;20044;-69
2021/05/13 07:48:31;;;;;;;14.75;10.73;;;;;;;;;;5135338;27;20085;-70
2021/05/13 07:50:57;;;;;;;13.43;10.43;;;;;;;;;;5134761;27;20054;-67
2021/05/13 07:53:25;;;;;;;15.77;11.40;;;;;;;;;;5134199;27;20043;-67
2021/05/13 07:55:51;;;;;;;11.50;10.15;;;;;;;;;;5135729;27;20043;-66
2021/05/13 07:58:16;;;;;;;12.23;10.18;;;;;;;;;;5135487;27;20134;-67
2021/05/13 08:00:42;;;;;;;15.07;11.05;;;;;;;;;;5134695;27;20544;-67
2021/05/13 08:03:08;;;;;;;14.38;10.73;;;;;;;;;;5131619;27;20142;-68
2021/05/13 08:05:35;;;;;;;14.30;11.35;;;;;;;;;;5133648;27;20069;-68
2021/05/13 08:08:01;;;;;;;11.70;10.32;;;;;;;;;;5133696;27;20399;-68
2021/05/13 08:10:29;;;;;;;14.45;10.07;;;;;;;;;;5130855;27;20078;-68
2021/05/13 08:12:54;;;;;;;11.35;9.57;;;;;;;;;;5132660;27;20047;-68
2021/05/13 08:15:20;;;;;;;11.05;9.68;;;;;;;;;;5132703;27;20054;-67
2021/05/13 08:17:46;;;;;;;13.32;10.10;;;;;;;;;;5134199;27;20046;-68
2021/05/13 08:20:14;;;;;;;11.65;10.02;;;;;;;;;;5134848;27;20690;-68
2021/05/13 08:22:41;;;;;;;13.52;9.73;;;;;;;;;;5133488;27;20049;-69
2021/05/13 08:25:09;;;;;;;12.63;9.77;;;;;;;;;;5134372;27;20051;-69
2021/05/13 08:27:36;;;;;;;11.10;8.55;;;;;;;;;;5134495;27;20047;-68
2021/05/13 08:30:04;;;;;;;10.15;8.77;;;;;;;;;;5133620;27;20051;-68
2021/05/13 08:32:30;;;;;;;9.82;7.47;;;;;;;;;;5133434;27;20053;-70
2021/05/13 08:34:56;;;;;;;10.10;8.15;;;;;;;;;;5134789;27;20079;-68
2021/05/13 08:37:22;;;;;;;8.75;6.78;;;;;;;;;;5135683;27;20043;-69
2021/05/13 08:39:48;;;;;;;8.10;7.03;;;;;;;;;;5134903;27;20039;-68
2021/05/13 08:42:15;;;;;;;9.70;7.32;;;;;;;;;;5134095;27;20077;-69
2021/05/13 08:44:42;;;;;;;10.65;7.72;;;;;;;;;;5134629;27;20040;-68
2021/05/13 08:47:09;;;;;;;9.98;6.18;;;;;;;;;;5134583;27;20054;-68
2021/05/13 08:49:35;;;;;;;11.00;5.70;;;;;;;;;;5134423;27;20059;-68
2021/05/13 08:52:01;;;;;;;9.13;6.03;;;;;;;;;;5132497;27;20487;-67
2021/05/13 08:54:28;;;;;;;7.70;5.75;;;;;;;;;;5133742;27;20487;-67
2021/05/13 08:56:54;;;;;;;7.63;5.72;;;;;;;;;;5132045;27;20047;-68
2021/05/13 08:59:20;;;;;;;9.88;5.75;;;;;;;;;;5133154;27;20373;-68
2021/05/13 09:01:56;;;;;;;7.95;6.25;;;;;;;;;;5132139;27;20058;-69
2021/05/13 09:04:22;;;;;;;7.72;5.55;;;;;;;;;;5133473;27;20043;-68
2021/05/13 09:06:48;;;;;;;5.80;4.93;;;;;;;;;;5132937;27;20096;-69
2021/05/13 09:09:15;;;;;;;7.15;5.65;;;;;;;;;;5132552;27;20104;-67
2021/05/13 09:11:49;;;;;;;6.95;4.60;;;;;;;;;;5129954;27;20058;-68
2021/05/13 09:14:21;;;;;;;7.97;4.20;;;;;;;;;;5125542;27;20050;-67
2021/05/13 09:16:49;;;;;;;8.55;4.43;;;;;;;;;;5133022;27;20047;-69
2021/05/13 09:19:23;;;;;;;7.30;4.60;;;;;;;;;;5132817;27;20418;-68
2021/05/13 09:21:51;;;;;;;5.05;3.33;;;;;;;;;;5131537;27;20440;-67
2021/05/13 09:24:41;;;;;;;6.10;3.40;;;;;;;;;;5132234;27;20047;-68
2021/05/13 09:27:14;;;;;;;4.95;3.28;;;;;;;;;;5138219;27;20063;-67
2021/05/13 09:29:40;;;;;;;4.78;3.03;;;;;;;;;;5132946;27;20054;-67
2021/05/13 09:32:15;;;;;;;6.80;3.90;;;;;;;;;;5131674;27;20123;-68
2021/05/13 09:34:42;;;;;;;5.88;3.58;;;;;;;;;;5132914;27;20449;-69
2021/05/13 09:37:08;;;;;;;6.15;3.63;;;;;;;;;;5133221;27;20051;-68
2021/05/13 09:39:33;;;;;;;5.50;3.22;;;;;;;;;;5132753;27;20044;-68
2021/05/13 09:42:01;;;;;;;4.85;3.40;;;;;;;;;;5131726;28;20047;-69
2021/05/13 09:44:32;;;;;;;22.83;5.93;;;;;;;;;;5132518;28;20046;-69
2021/05/13 09:47:11;;;;;;;5.15;2.70;;;;;;;;;;5132799;28;20494;-69
2021/05/13 09:49:53;;;;;;;4.43;2.70;;;;;;;;;;5133053;28;20166;-68
2021/05/13 09:52:40;;;;;;;4.80;2.22;;;;;;;;;;5132073;28;20054;-69
2021/05/13 09:55:18;;;;;;;3.45;2.13;;;;;;;;;;5131989;28;21263;-69
2021/05/13 09:57:52;;;;;;;4.32;2.33;;;;;;;;;;5132503;28;20051;-68
2021/05/13 10:00:41;;;;;;;4.82;2.30;;;;;;;;;;5125476;28;20498;-69
2021/05/13 10:03:10;;;;;;;4.03;2.40;;;;;;;;;;5132468;27;20059;-69
2021/05/13 10:05:38;;;;;;;3.97;2.63;;;;;;;;;;5136040;27;20051;-69
2021/05/13 10:08:05;;;;;;;6.15;2.78;;;;;;;;;;5137493;27;20047;-70
2021/05/13 10:10:31;;;;;;;4.70;2.38;;;;;;;;;;5137509;27;20111;-70
2021/05/13 10:12:58;;;;;;;6.85;2.45;;;;;;;;;;5135882;27;20054;-72
2021/05/13 10:15:25;;;;;;;4.32;2.70;;;;;;;;;;5136138;27;20400;-69
2021/05/13 10:17:55;;;;;;;6.53;2.65;;;;;;;;;;5135852;27;20051;-71
2021/05/13 10:20:23;;;;;;;3.90;2.30;;;;;;;;;;5136950;27;20104;-70
2021/05/13 10:22:50;;;;;;;4.97;2.65;;;;;;;;;;5137081;27;20055;-70
2021/05/13 10:25:21;;;;;;;8.82;3.28;;;;;;;;;;5137272;27;20047;-70
2021/05/13 10:27:51;;;;;;;5.53;3.20;;;;;;;;;;5137555;27;20047;-70
2021/05/13 10:30:22;;;;;;;4.07;2.83;;;;;;;;;;5137719;27;20043;-71
2021/05/13 10:33:07;;;;;;;5.28;3.20;;;;;;;;;;5135820;27;20050;-70
2021/05/13 10:35:33;;;;;;;5.10;2.72;;;;;;;;;;5136295;27;20435;-70
2021/05/13 10:38:03;;;;;;;5.30;2.60;;;;;;;;;;5135368;27;20104;-70
2021/05/13 10:40:46;;;;;;;8.52;3.10;;;;;;;;;;5135406;27;20452;-70
2021/05/13 10:43:12;;;;;;;5.45;2.70;;;;;;;;;;5134601;27;20047;-69
2021/05/13 10:45:39;;;;;;;5.57;2.50;;;;;;;;;;5136064;27;20039;-69
2021/05/13 10:48:10;;;;;;;5.18;2.72;;;;;;;;;;5136575;27;20055;-70
2021/05/13 10:50:42;;;;;;;3.40;2.22;;;;;;;;;;5135961;27;20072;-69
2021/05/13 10:53:42;;;;;;;5.00;2.22;;;;;;;;;;5135280;27;20075;-73
2021/05/13 10:56:22;;;;;;;4.93;2.35;;;;;;;;;;5136753;27;20145;-72
2021/05/13 10:59:03;;;;;;;6.53;2.45;;;;;;;;;;5136821;27;20051;-70
2021/05/13 11:01:40;;;;;;;6.05;2.40;;;;;;;;;;5128916;27;20075;-70
2021/05/13 11:04:41;;;;;;;4.40;2.40;;;;;;;;;;5135482;27;20073;-69
2021/05/13 11:07:25;;;;;;;4.50;2.53;;;;;;;;;;5135228;27;20066;-69
2021/05/13 11:09:56;;;;;;;4.82;2.85;;;;;;;;;;5134172;27;20051;-70
2021/05/13 11:12:24;;;;;;;4.72;2.28;;;;;;;;;;5129405;27;20047;-70
2021/05/13 11:15:06;;;;;;;4.50;2.55;;;;;;;;;;5129536;27;20047;-70
2021/05/13 11:18:12;;;;;;;6.40;2.60;;;;;;;;;;5133215;27;20057;-70
2021/05/13 11:20:51;;;;;;;4.20;2.35;;;;;;;;;;5134778;27;20084;-70
2021/05/13 11:23:21;;;;;;;7.10;3.00;;;;;;;;;;5129730;27;20042;-70
2021/05/13 11:25:49;;;;;;;4.43;2.42;;;;;;;;;;5137286;27;20066;-70
2021/05/13 11:28:20;;;;;;;4.45;2.97;;;;;;;;;;5140224;27;20495;-70
2021/05/13 11:30:47;;;;;;;5.25;2.53;;;;;;;;;;5141518;27;20062;-69
2021/05/13 11:33:13;;;;;;;5.43;3.28;;;;;;;;;;5142226;27;20054;-70
2021/05/13 11:35:39;;;;;;;5.93;2.95;;;;;;;;;;5138683;27;20047;-70
2021/05/13 11:38:16;;;;;;;6.88;2.75;;;;;;;;;;5132776;27;20082;-70
2021/05/13 11:40:42;;;;;;;5.28;2.38;;;;;;;;;;5140977;27;20046;-69
2021/05/13 11:43:22;;;;;;;4.93;2.30;;;;;;;;;;5143552;27;20072;-69
2021/05/13 11:45:48;;;;;;;7.20;2.65;;;;;;;;;;5140549;27;20127;-69
2021/05/13 11:48:26;;;;;;;6.55;2.45;;;;;;;;;;5138241;27;20506;-69
2021/05/13 11:50:53;;;;;;;10.82;2.78;;;;;;;;;;5135130;27;20087;-69
2021/05/13 11:53:19;;;;;;;4.82;2.08;;;;;;;;;;5134941;27;20047;-70
2021/05/13 11:55:47;;;;;;;4.55;2.50;;;;;;;;;;5134852;27;20161;-70
2021/05/13 11:58:14;;;;;;;4.85;2.35;;;;;;;;;;5133733;27;20055;-69
2021/05/13 12:00:41;;;;;;;4.40;1.45;;;;;;;;;;5134396;27;20043;-69
2021/05/13 12:03:08;;;;;;;3.10;1.90;;;;;;;;;;5130269;27;20054;-69
2021/05/13 12:05:45;;;;;;;3.92;1.90;;;;;;;;;;5134511;27;20055;-70
2021/05/13 12:08:14;;;;;;;4.00;1.95;;;;;;;;;;5134465;27;20088;-70
2021/05/13 12:10:40;;;;;;;3.15;1.60;;;;;;;;;;5133661;27;20411;-70
2021/05/13 12:13:06;;;;;;;4.13;2.13;;;;;;;;;;5130710;27;20131;-70
2021/05/13 12:15:32;;;;;;;4.28;2.38;;;;;;;;;;5133245;27;20081;-70
2021/05/13 12:17:59;;;;;;;7.10;4.63;;;;;;;;;;5135681;27;20055;-70
2021/05/13 12:20:25;;;;;;;5.75;3.15;;;;;;;;;;5133656;27;20063;-70
2021/05/13 12:22:51;;;;;;;5.45;3.15;;;;;;;;;;5133917;27;20055;-70
2021/05/13 12:25:19;;;;;;;4.72;2.45;;;;;;;;;;5138968;27;20046;-70
2021/05/13 12:27:45;;;;;;;3.50;2.05;;;;;;;;;;5133891;27;20054;-70
2021/05/13 12:30:12;;;;;;;3.88;2.42;;;;;;;;;;5134557;27;20071;-70
2021/05/13 12:32:38;;;;;;;5.85;2.78;;;;;;;;;;5131671;27;20399;-71
2021/05/13 12:35:24;;;;;;;5.22;2.72;;;;;;;;;;5133923;27;20126;-71
2021/05/13 12:37:53;;;;;;;10.00;3.03;;;;;;;;;;5131596;27;20070;-70
2021/05/13 12:40:20;;;;;;;10.10;3.28;;;;;;;;;;5130006;27;20616;-69
2021/05/13 12:42:46;;;;;;;12.38;3.38;;;;;;;;;;5126119;27;20039;-69
2021/05/13 12:45:17;;;;;;;7.07;2.80;;;;;;;;;;5132042;27;20086;-70
2021/05/13 12:47:45;;;;;;;5.93;2.85;;;;;;;;;;5130751;27;20067;-69
2021/05/13 12:50:13;;;;;;;7.80;2.42;;;;;;;;;;5132622;27;20047;-69
2021/05/13 12:52:41;;;;;;;5.20;2.15;;;;;;;;;;5130669;27;20526;-70
2021/05/13 12:55:13;;;;;;;5.63;2.50;;;;;;;;;;5135192;27;20036;-69
2021/05/13 12:57:41;;;;;;;5.78;2.65;;;;;;;;;;5130162;27;20589;-68
2021/05/13 13:00:10;;;;;;;5.43;2.55;;;;;;;;;;5134712;27;20119;-69
2021/05/13 13:02:36;;;;;;;3.40;1.50;;;;;;;;;;5132394;27;20125;-67
2021/05/13 13:05:06;;;;;;;3.53;2.10;;;;;;;;;;5138061;27;20130;-68
2021/05/13 13:07:37;;;;;;;5.72;2.20;;;;;;;;;;5134347;27;20050;-68
2021/05/13 13:10:34;;;;;;;4.10;1.90;;;;;;;;;;5129023;27;20479;-68
2021/05/13 13:13:09;;;;;;;3.47;1.58;;;;;;;;;;5132784;27;20054;-69
2021/05/13 13:15:37;;;;;;;3.63;1.50;;;;;;;;;;5128154;27;20050;-69
2021/05/13 13:18:05;;;;;;;4.35;1.52;;;;;;;;;;5132854;27;20054;-69
2021/05/13 13:20:32;;;;;;;4.20;1.60;;;;;;;;;;5132446;27;20059;-69
2021/05/13 13:23:18;;;;;;;4.75;1.77;;;;;;;;;;5130578;27;20137;-69
2021/05/13 13:25:45;;;;;;;2.65;1.50;;;;;;;;;;5130863;27;20039;-69
2021/05/13 13:28:11;;;;;;;4.90;1.95;;;;;;;;;;5130029;27;20488;-69
2021/05/13 13:30:37;;;;;;;2.78;1.70;;;;;;;;;;5132598;27;20043;-69
2021/05/13 13:33:17;;;;;;;3.40;1.45;;;;;;;;;;5133190;27;20107;-68
2021/05/13 13:35:43;;;;;;;3.28;1.48;;;;;;;;;;5132986;27;20062;-69
2021/05/13 13:38:10;;;;;;;2.80;1.42;;;;;;;;;;5132910;27;20047;-68
2021/05/13 13:40:37;;;;;;;3.30;1.30;;;;;;;;;;5133715;27;20051;-68
2021/05/13 13:43:04;;;;;;;2.88;1.20;;;;;;;;;;5133148;27;20054;-68
2021/05/13 13:45:30;;;;;;;4.40;1.60;;;;;;;;;;5133068;28;20043;-68
2021/05/13 13:48:07;;;;;;;2.15;1.40;;;;;;;;;;5134278;28;20357;-68
2021/05/13 13:50:33;;;;;;;1.77;1.10;;;;;;;;;;5134086;28;20054;-67
2021/05/13 13:52:59;;;;;;;1.92;1.00;;;;;;;;;;5133119;28;20054;-67
2021/05/13 13:55:24;;;;;;;2.35;1.10;;;;;;;;;;5133459;28;20085;-67
2021/05/13 13:57:50;;;;;;;2.22;1.13;;;;;;;;;;5133932;28;20058;-67
2021/05/13 14:00:19;;;;;;;1.63;1.00;;;;;;;;;;5133735;28;20093;-68
2021/05/13 14:02:46;;;;;;;2.75;1.30;;;;;;;;;;5132665;28;20072;-68
2021/05/13 14:05:12;;;;;;;2.15;1.20;;;;;;;;;;5133222;28;20147;-70
2021/05/13 14:07:38;;;;;;;17.77;3.22;;;;;;;;;;5134022;28;20054;-70
2021/05/13 14:10:05;;;;;;;4.05;1.58;;;;;;;;;;5134106;28;20402;-68
2021/05/13 14:12:31;;;;;;;4.35;1.60;;;;;;;;;;5133624;28;20054;-68
2021/05/13 14:14:57;;;;;;;6.60;1.58;;;;;;;;;;5133050;28;20043;-68
2021/05/13 14:17:25;;;;;;;10.75;1.60;;;;;;;;;;5131110;28;20085;-69
2021/05/13 14:19:51;;;;;;;6.25;1.52;;;;;;;;;;5133196;28;20083;-68
2021/05/13 14:22:18;;;;;;;5.82;1.27;;;;;;;;;;5132919;28;20384;-68
2021/05/13 14:24:44;;;;;;;5.97;1.42;;;;;;;;;;5133707;28;20051;-69
2021/05/13 14:27:10;;;;;;;8.35;1.40;;;;;;;;;;5133208;28;20065;-69
2021/05/13 14:29:36;;;;;;;5.88;1.50;;;;;;;;;;5132965;28;20062;-68
2021/05/13 14:32:02;;;;;;;3.55;1.52;;;;;;;;;;5133026;28;20549;-69
2021/05/13 14:34:29;;;;;;;4.55;1.98;;;;;;;;;;5133027;28;20043;-70
2021/05/13 14:36:55;;;;;;;3.65;1.83;;;;;;;;;;5133818;28;20058;-69